Hidden Valley Lake, CA (95467)

8:21 AM PDT on July 06, 2015 (GMT -0700)
Hidden Valley Lake | | Change Station
CLOSE
Current Station
Personal Weather Station
Location: Hidden Valley Lake, CA
Elevation: 1083 ft
Nearby Weather Stations

Elev 1083 ft 38.80 °N, 122.56 °W | Updated 8 seconds ago

Mostly Cloudy
Mostly Cloudy
69.3 °F
Feels Like 69.3 °F
N
0.0
Wind Variable Wind from WSW
Gusts 0.0 mph

Today
High -- | Low -- °F
--% Chance of Precip.
Yesterday
High -- | Low -- °F
Precip. -- in
5:51 AM 8:38 PM
Waning Gibbous, 74% visible
Pressure 30.05 in
Visibility 7.0 miles
Clouds Overcast 1000 ft
Dew Point 55 °F
Humidity 61%
Rainfall 0.00 in
Snow Depth Not available.
UV 1.0 out of 12
Pollen Not available.
Air Quality Not available.
Flu Activity Not available.
METAR KSTS 061453Z 17003KT 7SM OVC010 15/12 A3006 RMK AO2 SLP174 T01500122 51014

More Conditions Fewer Conditions

Pressure 30.05 in
Visibility 7.0 miles
Clouds Overcast 1000 ft
Dew Point 55 °F
Humidity 61%
Rainfall 0.00 in
Snow Depth Not available.
UV 1.0 out of 12
Pollen Not available.
Air Quality Not available.
Flu Activity Not available.
METAR KSTS 061453Z 17003KT 7SM OVC010 15/12 A3006 RMK AO2 SLP174 T01500122 51014

More Conditions Fewer Conditions

10-Day Weather Forecast

×

Almanac

Astronomy

Jul. 06, 2015 Rise Set
Actual Time
Civil Twilight
Nautical Twilight
Astronomical Twilight
Moon
Length of Visible Light
Length of Day
Tomorrow will be .
, % of the Moon is Illuminated

Today's Extremes

State Highs State Lows

Community

WunderPhotos

Upload Photos

1,835,572 photos uploaded!

WunderBlogs® & News

Nearby

Air Quality

  Air Quality AQ Index Pollutant
Not available.

Snow Depth

Station Depth Elevation

Earthquake Activity

City Distance Mag. Time & Date
Minimum magnitude displayed is 2.5.

Coastal Water Temperatures

Place Temperature

Stations

Nearby Weather Stations

Station Location Temp. Windchill Dew Point Humidity Wind Precip. Elev Updated Type